Resolution Run 5K:  All-Time Best Men
Montgomery High School Course, 2000 to 2014
 A Place to Play Course, 2015 to Present
All-Time Top Ten:  All Age Groups
Rank Name Age Time Year
1 Reesey Byers 20 15:10 2013
2 Tom Brooks 30 15:28 2009
3 Nick Spector 23 15:36 2015
4 Cristian Nazarek 19 15:39 2015
5 Dante Capone 20 15:49 2017
5 Ty Strange 40 15:55 2001
7 Justin Bullock 23 15:59 2016
8 J.K. Withers 18 16:01 2005
9 Jordan Kinley 15 16:06 2000
9 Richard Flores 44 16:06 2000
All-Time Top Ten:  Age 12-and-under
Rank Name Age Time Year
1 Job Skandera 12 18:15 2014
2 Daniel Skandera 8 18:50 2016
3 Matthew Salazar 12 19:22 2011
4 Daniel Pride 11 19:54 2011
5 Lucas Chung 12 20:37 2014
6 Nehemiah Skandera 11 20:40 2014
7 Nolan Hosbein 10 21:09 2014
8 Connor Fagent 12 21:34 2002
9 Jedediah Hornback 9 21:41 2014
10 Sebastian Bohn 12 21:43 2017
All-Time Top Ten:  Age 13 to 15
Rank Name Age Time Year
1 Jordan Kinley 15 16:06 2000
2 Matt Salazar 15 16:20 2014
3 Lucas Chung 15 16:26 2017
4 Daniel Pride 15 16:27 2015
5 Paden Collard 15 16:49 2017
6 Regan Masi 14 17:08 2000
7 Luis Luna 14 17:13 2009
8 Andrew Engel 15 17:58 2017
9 Jackson Yates 15 17:59 2014
10 Jonathan Peck 15 18:00 2010
All-Time Top Ten:  Age 16 to 19
Rank Name Age Time Year
1 Reesey Byers 19 15:11 2012
2 Cristian Nazarek 19 15:39 2015
3 J.K. Withers 18 16:01 2005
4 Daniel Hauptman 19 16:10 2013
5 Luis Luna 17 16:20 2012
6 Daniel Pride 17 16:21 2017
7 Dante Capone 19 16:22 2016
8 Nicholas Rauch 17 16:23 2015
9 DeWit Tesfasilassie 18 16:33 2004
10 Matthew Mulligan 19 16:40 2015
All-Time Top Ten:  Age 20 to 24
Rank Name Age Time Year
1 Reesey Byers 20 15:10 2013
2 Nick Spector 23 15:36 2015
3 Dante Capone 20 15:49 2017
4 Justin Bullock 23 15:59 2016
5 Gus Greenstein 20 16:10 2013
6 Alex Wolf-Root 22 16:29 2009
7 Brice Winkler 20 16:50 2009
8 Sebastian O'Berough 20 16:59 2012
9 Brady Lane 20 17:10 2017
10 Mike Wortman 22 17:19 2008
All-Time Top Ten:  Age 25 to 29
Rank Name Age Time Year
1 Nick Spector 25 15:45 2017
2 Jeff Gardina 26 16:19 2009
3 Jake Dialesandro 26 16:20 2016
4 Vojta Ripa 27 16:23 2017
5 Gerald McCormick 26 16:57 2009
6 Mike Wortman 28 16:58 2014
7 Bryan Christensen 27 17:24 2013
8 Sean Fitzpatrick 29 17:35 2002
9 Todd Stevens 27 17:53 2000
10 Marcus Whitehead 26 18:02 2011
All-Time Top Ten:  Age 30 to 34
Rank Name Age Time Year
1 Tom Brooks 30 15:28 2009
2 Kenny Brown 34 16:22 2004
3 Eric Bohn 33 16:26 2000
4 Gerald McCormick 33 16:44 2016
5 Eric Walker 33 16:53 2002
6 Sean Fitzpatrick 34 16:56 2007
7 John Staroba 33 17:33 2013
8 Eric Downing 34 18:08 2006
9 Nathan Koch 30 18:13 2011
10 Andy Brodziak 30 18:17 2009
All-Time Top Ten:  Age 35 to 39
Rank Name Age Time Year
1 Kenny Brown 35 16:35 2005
2 Eric. Bohn 37 16:36 2004
3 Ty Strange 39 16:54 2000
4 John Staroba 36 16:56 2016
5 Eric Walker 35 16:59 2004
6 Sean Fitzpatrick 35 17:03 2008
7 J.D. Kurz 37 17:12 2015
8 Clinton Stevens 36 17:21 2010
9 T.R. Parker 35 17:22 2015
10 Nathan Koch 35 17:55 2016
All-Time Top Ten:  Age 40 to 44
Rank Name Age Time Year
1 Ty Strange 40 15:55 2001
2 Richard Flores 44 16:06 2000
3 Larry Meredith 42 16:46 2000
4 Stephen Agar 44 17:14 2013
5 Don Stewart 44 17:41 2006
6 Kenny Brown 40 17:57 2010
7 Greg Clementi 42 18:00 2001
8 Vince Ewing 44 18:06 2009
9 Stephen Starkweather 40 18:11 2001
10 David Capron 41 18:12 2000
All-Time Top Ten:  Age 45 to 49
Rank Name Age Time Year
1 Ty Strange 48 16:44 2009
2 Stephen Agar 45 16:48 2014
3 Don Stewart 48 17:15 2010
4 Niels Thompson 48 17:39 2012
5 Steve Cleal 48 18:02 2006
6 Kenny Brown 47 18:08 2015
7 Andy Howard 47 18:12 2009
8 Bob Rogers 46 18:21 2004
9 Larry Meredith 45 18:22 2003
10 Doug Waits 45 18:23 2009
All-Time Top Ten:  Age 50 to 54
Rank Name Age Time Year
1 Guy Schott 51 17:13 2015
2 Ty Strange 50 17:33 2011
2 Danny Aldridge 50 17:50 2007
4 Don Stewart 52 17:50 2014
5 Jonathan Hayden 54 18:14 2011
6 Andy Howard 50 18:25 2012
7 Matt Rypka 51 18:31 2017
8 Jerry Lyman 53 18:46 2003
9 John Lundy 50 18:48 2014
10 Larry Meredith 50 18:49 2008
All-Time Top Ten:  Age 55 to 59
Rank Name Age Time Year
1 Dan Preston 58 18:13 2001
1 Jonathan Hayden 55 18:13 2012
3 Danny Aldridge 58 18:05 2015
4 Brad Zanetti 57 18:57 2012
5 Brendan Hutchinson 56 19:01 2000
6 Jerry Lyman 55 19:04 2005
7 Larry Meredith 56 19:50 2014
8 Paul Berg 56 19:51 2012
9 Troy Tuscher 56 20:05 2017
10 Andy Howard 55 19:20 2017
All-Time Top Ten:  Age 60 to 64
Rank Name Age Time Year
1 Darryl Beardall 64 19:30 2001
2 Brad Zanetti 60 19:43 2015
3 Richard Quinn 63 19:49 2016
4 Lon Wiley 61 20:06 2010
5 Steve Cryer 62 20:06 2015
6 Jerry Lyman 60 20:31 2010
7 Don Lindsay 61 20:35 2015
8 Dan Preston 64 20:41 2007
9 Brendan Hutchinson 61 20:42 2005
10 Frank Cuneo 61 21:05 2017
10 Bruce Leary 61 21:48 2013
All-Time Top Ten:  Age 65 to 69
Rank Name Age Time Year
1 Anthony Fleming 65 20:27 2013
2 Michael Holland 68 21:09 2017
2 Jon Hermstad 66 21:13 2015
4 Brendan Hutchinson 68 21:26 2012
5 Len Geraldi 66 21:51 2003
6 Ralph Harms 65 22:20 2001
7 Darryl Beardall 66 22:22 2003
8 Dan Preston 65 22:26 2008
9 Carl Jackson 66 22:47 2000
10 Dan Tuohy 67 22:50 2003
All-Time Top Ten:  Age 70 to 74
Rank Name Age Time Year
1 Darryl Beardall 70 23:13 2007
2 Dan Tuohy 70 23:16 2006
3 Mike McGuire 70 23:21 2016
4 Brendan Hutchinson 71 23:26 2015
5 Robert Holland 72 25:00 2017
6 Gilbert Moreno 70 25:39 2014
7 Dale Leyhe 71 25:49 2003
8 Carl Jackson 71 26:17 2005
9 Bob Frazer 70 26:19 2014
10 William Marshall 74 26:43 2015
All-Time Top Ten:  Age 75 to 79
Rank Name Age Time Year
1 Jim Ray 77 25:48 2003
2 William Marshall 76 27:03 2017
3 Carl Jackson 75 27:10 2008
4 Dale Leyhe 75 29:06 2007
5 Darryl Beardall 76 29:34 2013
6 Charles Hoagland 77 31:59 2006
7 Dale Trowbridge 75 34:19 2016
8 Dan Tuohy 78 35:06 2014
9 Gilman Jung 76 38:02 2009
All-Time Top Ten:  Age 80 to 89
Rank Name Age Time Year
1 Carl Jackson 80 32:43 2014
2 Dale Leyhe 80 33:08 2012
3 Donald Soroka 84 35:22 2017
4 Roger Anawalt 86 55:12 2006
5 Darryl Beardall 80 59:58 2017
All-Time Top Ten:  Age 90-and-over
Rank Name Age Time Year
1 Roger Anawalt 90 61:25 2010